Monte Verde Paulista, Brazil
Current Conditions -  °F | °C
As of 2:00 PM on Saturday 22 Nov 2014 (Local Time) from SBSR Reporting Station
Light Rain Light Rain  
Wind Chill: 70°   Ceiling: 1500
Heat Index: 70°   Visibility: 3mi
Dew Point: 66°   Wind: 12mph
Humidity: 88%   Direction: 240°WSW
Pressure: 30"   Gusts: NA
Location:  20.84°S, 48.79°W
Report Text: SBSR 221600Z 24010KT 5000 -RA SCT007 BKN015 OVC070 21/19 Q1016
Loading
Personal Weather Stations






























Interactive Weather Map New forecast layout! Learn more

10-Day Weather Forecast

Advertisements
Track Severe Weather on mobile